sensor_id;sensor_type;location;lat;lon;timestamp;temperature;humidity
35325;DHT22;35135;47.510;19.036;2023-04-28T00:02:02;21.60;44.30
35325;DHT22;35135;47.510;19.036;2023-04-28T00:04:28;21.60;44.30
35325;DHT22;35135;47.510;19.036;2023-04-28T00:06:53;21.60;44.30
35325;DHT22;35135;47.510;19.036;2023-04-28T00:09:19;21.60;44.20
35325;DHT22;35135;47.510;19.036;2023-04-28T00:11:45;21.50;44.20
35325;DHT22;35135;47.510;19.036;2023-04-28T00:14:11;21.60;44.30
35325;DHT22;35135;47.510;19.036;2023-04-28T00:16:37;21.50;44.20
35325;DHT22;35135;47.510;19.036;2023-04-28T00:19:03;21.50;44.20
35325;DHT22;35135;47.510;19.036;2023-04-28T00:21:29;21.50;44.20
35325;DHT22;35135;47.510;19.036;2023-04-28T00:23:55;21.50;44.20
35325;DHT22;35135;47.510;19.036;2023-04-28T00:26:20;21.50;44.10
35325;DHT22;35135;47.510;19.036;2023-04-28T00:28:46;21.50;44.10
35325;DHT22;35135;47.510;19.036;2023-04-28T00:31:13;21.50;44.10
35325;DHT22;35135;47.510;19.036;2023-04-28T00:33:39;21.50;44.10
35325;DHT22;35135;47.510;19.036;2023-04-28T00:36:05;21.50;44.10
35325;DHT22;35135;47.510;19.036;2023-04-28T00:38:31;21.50;44.10
35325;DHT22;35135;47.510;19.036;2023-04-28T00:40:57;21.50;44.10
35325;DHT22;35135;47.510;19.036;2023-04-28T00:43:23;21.50;44.10
35325;DHT22;35135;47.510;19.036;2023-04-28T00:45:49;21.50;44.20
35325;DHT22;35135;47.510;19.036;2023-04-28T00:48:15;21.50;44.10
35325;DHT22;35135;47.510;19.036;2023-04-28T00:50:45;21.50;44.10
35325;DHT22;35135;47.510;19.036;2023-04-28T00:53:11;21.50;44.20
35325;DHT22;35135;47.510;19.036;2023-04-28T00:55:38;21.40;44.10
35325;DHT22;35135;47.510;19.036;2023-04-28T00:58:04;21.50;44.20
35325;DHT22;35135;47.510;19.036;2023-04-28T01:00:31;21.50;44.20
35325;DHT22;35135;47.510;19.036;2023-04-28T01:02:57;21.40;44.10
35325;DHT22;35135;47.510;19.036;2023-04-28T01:05:27;21.50;44.10
35325;DHT22;35135;47.510;19.036;2023-04-28T01:07:53;21.50;44.10
35325;DHT22;35135;47.510;19.036;2023-04-28T01:10:19;21.50;44.10
35325;DHT22;35135;47.510;19.036;2023-04-28T01:12:45;21.40;44.10
35325;DHT22;35135;47.510;19.036;2023-04-28T01:15:20;21.40;44.10
35325;DHT22;35135;47.510;19.036;2023-04-28T01:17:46;21.40;44.10
35325;DHT22;35135;47.510;19.036;2023-04-28T01:20:13;21.40;44.10
35325;DHT22;35135;47.510;19.036;2023-04-28T01:22:39;21.40;44.10
35325;DHT22;35135;47.510;19.036;2023-04-28T01:25:05;21.40;44.10
35325;DHT22;35135;47.510;19.036;2023-04-28T01:27:30;21.40;44.10
35325;DHT22;35135;47.510;19.036;2023-04-28T01:29:56;21.40;44.10
35325;DHT22;35135;47.510;19.036;2023-04-28T01:32:23;21.40;44.10
35325;DHT22;35135;47.510;19.036;2023-04-28T01:34:48;21.40;44.10
35325;DHT22;35135;47.510;19.036;2023-04-28T01:37:14;21.40;44.10
35325;DHT22;35135;47.510;19.036;2023-04-28T01:39:40;21.40;44.10
35325;DHT22;35135;47.510;19.036;2023-04-28T01:42:06;21.40;44.10
35325;DHT22;35135;47.510;19.036;2023-04-28T01:44:31;21.40;44.20
35325;DHT22;35135;47.510;19.036;2023-04-28T01:46:57;21.40;44.10
35325;DHT22;35135;47.510;19.036;2023-04-28T01:49:23;21.40;44.10
35325;DHT22;35135;47.510;19.036;2023-04-28T01:51:48;21.40;44.10
35325;DHT22;35135;47.510;19.036;2023-04-28T01:54:14;21.40;44.10
35325;DHT22;35135;47.510;19.036;2023-04-28T01:56:40;21.40;44.10
35325;DHT22;35135;47.510;19.036;2023-04-28T01:59:06;21.30;44.10
35325;DHT22;35135;47.510;19.036;2023-04-28T02:01:31;21.30;44.10
35325;DHT22;35135;47.510;19.036;2023-04-28T02:03:57;21.30;44.10
35325;DHT22;35135;47.510;19.036;2023-04-28T02:06:23;21.30;44.70
35325;DHT22;35135;47.510;19.036;2023-04-28T02:08:48;21.30;44.00
35325;DHT22;35135;47.510;19.036;2023-04-28T02:11:14;21.30;44.10
35325;DHT22;35135;47.510;19.036;2023-04-28T02:13:40;21.30;44.00
35325;DHT22;35135;47.510;19.036;2023-04-28T02:16:06;21.30;44.10
35325;DHT22;35135;47.510;19.036;2023-04-28T02:18:31;21.30;44.10
35325;DHT22;35135;47.510;19.036;2023-04-28T02:20:57;21.30;44.10
35325;DHT22;35135;47.510;19.036;2023-04-28T02:23:23;21.30;44.10
35325;DHT22;35135;47.510;19.036;2023-04-28T02:25:48;21.30;44.10
35325;DHT22;35135;47.510;19.036;2023-04-28T02:28:14;21.30;44.10
35325;DHT22;35135;47.510;19.036;2023-04-28T02:30:40;21.30;44.10
35325;DHT22;35135;47.510;19.036;2023-04-28T02:33:06;21.30;44.10
35325;DHT22;35135;47.510;19.036;2023-04-28T02:35:31;21.30;44.10
35325;DHT22;35135;47.510;19.036;2023-04-28T02:37:57;21.30;44.00
35325;DHT22;35135;47.510;19.036;2023-04-28T02:40:22;21.30;44.10
35325;DHT22;35135;47.510;19.036;2023-04-28T02:42:48;21.30;44.10
35325;DHT22;35135;47.510;19.036;2023-04-28T02:45:14;21.30;44.10
35325;DHT22;35135;47.510;19.036;2023-04-28T02:47:39;21.30;44.10
35325;DHT22;35135;47.510;19.036;2023-04-28T02:50:06;21.30;44.10
35325;DHT22;35135;47.510;19.036;2023-04-28T02:52:32;21.30;44.10
35325;DHT22;35135;47.510;19.036;2023-04-28T02:54:58;21.30;44.10
35325;DHT22;35135;47.510;19.036;2023-04-28T02:57:23;21.30;44.20
35325;DHT22;35135;47.510;19.036;2023-04-28T02:59:49;21.30;44.10
35325;DHT22;35135;47.510;19.036;2023-04-28T03:02:15;21.30;44.10
35325;DHT22;35135;47.510;19.036;2023-04-28T03:04:41;21.30;44.10
35325;DHT22;35135;47.510;19.036;2023-04-28T03:07:07;21.30;44.10
35325;DHT22;35135;47.510;19.036;2023-04-28T03:09:32;21.30;44.10
35325;DHT22;35135;47.510;19.036;2023-04-28T03:11:58;21.30;44.10
35325;DHT22;35135;47.510;19.036;2023-04-28T03:14:24;21.30;44.70
35325;DHT22;35135;47.510;19.036;2023-04-28T03:16:49;21.30;44.10
35325;DHT22;35135;47.510;19.036;2023-04-28T03:19:15;21.30;44.10
35325;DHT22;35135;47.510;19.036;2023-04-28T03:21:41;21.30;44.10
35325;DHT22;35135;47.510;19.036;2023-04-28T03:24:06;21.30;44.10
35325;DHT22;35135;47.510;19.036;2023-04-28T03:26:33;21.30;44.10
35325;DHT22;35135;47.510;19.036;2023-04-28T03:28:59;21.30;44.10
35325;DHT22;35135;47.510;19.036;2023-04-28T03:31:24;21.20;44.00
35325;DHT22;35135;47.510;19.036;2023-04-28T03:33:50;21.20;44.00
35325;DHT22;35135;47.510;19.036;2023-04-28T03:36:16;21.20;44.00
35325;DHT22;35135;47.510;19.036;2023-04-28T03:38:42;21.20;44.00
35325;DHT22;35135;47.510;19.036;2023-04-28T03:41:08;21.20;44.00
35325;DHT22;35135;47.510;19.036;2023-04-28T03:43:33;21.20;44.10
35325;DHT22;35135;47.510;19.036;2023-04-28T03:46:02;21.20;44.00
35325;DHT22;35135;47.510;19.036;2023-04-28T03:48:28;21.20;44.00
35325;DHT22;35135;47.510;19.036;2023-04-28T03:50:53;21.20;44.00
35325;DHT22;35135;47.510;19.036;2023-04-28T03:53:19;21.20;44.00
35325;DHT22;35135;47.510;19.036;2023-04-28T03:55:45;21.20;44.00
35325;DHT22;35135;47.510;19.036;2023-04-28T03:58:10;21.20;44.00
35325;DHT22;35135;47.510;19.036;2023-04-28T04:00:36;21.20;44.00
35325;DHT22;35135;47.510;19.036;2023-04-28T04:03:02;21.20;44.00
35325;DHT22;35135;47.510;19.036;2023-04-28T04:05:28;21.20;44.00
35325;DHT22;35135;47.510;19.036;2023-04-28T04:07:53;21.20;44.00
35325;DHT22;35135;47.510;19.036;2023-04-28T04:10:19;21.20;44.00
35325;DHT22;35135;47.510;19.036;2023-04-28T04:12:45;21.20;44.00
35325;DHT22;35135;47.510;19.036;2023-04-28T04:15:10;21.20;44.00
35325;DHT22;35135;47.510;19.036;2023-04-28T04:17:36;21.20;44.00
35325;DHT22;35135;47.510;19.036;2023-04-28T04:20:03;21.20;44.00
35325;DHT22;35135;47.510;19.036;2023-04-28T04:22:28;21.20;44.00
35325;DHT22;35135;47.510;19.036;2023-04-28T04:24:54;21.20;44.00
35325;DHT22;35135;47.510;19.036;2023-04-28T04:27:20;21.20;44.00
35325;DHT22;35135;47.510;19.036;2023-04-28T04:29:45;21.20;44.00
35325;DHT22;35135;47.510;19.036;2023-04-28T04:32:11;21.20;44.00
35325;DHT22;35135;47.510;19.036;2023-04-28T04:34:37;21.20;44.00
35325;DHT22;35135;47.510;19.036;2023-04-28T04:37:03;21.30;44.00
35325;DHT22;35135;47.510;19.036;2023-04-28T04:39:28;21.30;44.00
35325;DHT22;35135;47.510;19.036;2023-04-28T04:41:54;21.30;44.00
35325;DHT22;35135;47.510;19.036;2023-04-28T04:44:20;21.30;44.00
35325;DHT22;35135;47.510;19.036;2023-04-28T04:46:46;21.30;43.90
35325;DHT22;35135;47.510;19.036;2023-04-28T04:49:12;21.30;43.90
35325;DHT22;35135;47.510;19.036;2023-04-28T04:51:38;21.30;43.90
35325;DHT22;35135;47.510;19.036;2023-04-28T04:54:03;21.30;43.90
35325;DHT22;35135;47.510;19.036;2023-04-28T04:56:29;21.40;43.90
35325;DHT22;35135;47.510;19.036;2023-04-28T04:58:56;21.40;43.90
35325;DHT22;35135;47.510;19.036;2023-04-28T05:01:21;21.50;43.70
35325;DHT22;35135;47.510;19.036;2023-04-28T05:03:47;21.60;43.60
35325;DHT22;35135;47.510;19.036;2023-04-28T05:06:13;21.60;43.50
35325;DHT22;35135;47.510;19.036;2023-04-28T05:08:38;21.70;43.50
35325;DHT22;35135;47.510;19.036;2023-04-28T05:11:04;21.70;43.40
35325;DHT22;35135;47.510;19.036;2023-04-28T05:13:30;21.80;43.30
35325;DHT22;35135;47.510;19.036;2023-04-28T05:15:55;21.80;43.20
35325;DHT22;35135;47.510;19.036;2023-04-28T05:18:21;21.90;43.20
35325;DHT22;35135;47.510;19.036;2023-04-28T05:20:47;21.90;43.10
35325;DHT22;35135;47.510;19.036;2023-04-28T05:23:13;22.00;43.10
35325;DHT22;35135;47.510;19.036;2023-04-28T05:25:38;22.00;43.00
35325;DHT22;35135;47.510;19.036;2023-04-28T05:28:04;22.00;43.00
35325;DHT22;35135;47.510;19.036;2023-04-28T05:30:33;22.20;43.00
35325;DHT22;35135;47.510;19.036;2023-04-28T05:32:59;22.20;43.00
35325;DHT22;35135;47.510;19.036;2023-04-28T05:35:25;22.20;42.90
35325;DHT22;35135;47.510;19.036;2023-04-28T05:37:52;22.20;42.80
35325;DHT22;35135;47.510;19.036;2023-04-28T05:40:18;22.20;42.70
35325;DHT22;35135;47.510;19.036;2023-04-28T05:42:44;22.20;43.00
35325;DHT22;35135;47.510;19.036;2023-04-28T05:45:10;22.20;42.10
35325;DHT22;35135;47.510;19.036;2023-04-28T05:47:36;22.10;42.20
35325;DHT22;35135;47.510;19.036;2023-04-28T05:50:01;22.10;42.20
35325;DHT22;35135;47.510;19.036;2023-04-28T05:52:28;22.10;42.20
35325;DHT22;35135;47.510;19.036;2023-04-28T05:54:53;22.10;42.10
35325;DHT22;35135;47.510;19.036;2023-04-28T05:57:20;22.10;42.10
35325;DHT22;35135;47.510;19.036;2023-04-28T05:59:52;22.10;42.10
35325;DHT22;35135;47.510;19.036;2023-04-28T06:02:19;22.00;42.00
35325;DHT22;35135;47.510;19.036;2023-04-28T06:04:44;22.00;42.10
35325;DHT22;35135;47.510;19.036;2023-04-28T06:07:10;22.00;42.20
35325;DHT22;35135;47.510;19.036;2023-04-28T06:09:36;21.90;42.30
35325;DHT22;35135;47.510;19.036;2023-04-28T06:12:01;21.90;42.40
35325;DHT22;35135;47.510;19.036;2023-04-28T06:14:28;21.90;42.60
35325;DHT22;35135;47.510;19.036;2023-04-28T06:16:54;21.90;42.80
35325;DHT22;35135;47.510;19.036;2023-04-28T06:19:19;21.90;43.00
35325;DHT22;35135;47.510;19.036;2023-04-28T06:21:45;22.00;43.10
35325;DHT22;35135;47.510;19.036;2023-04-28T06:24:11;22.00;43.30
35325;DHT22;35135;47.510;19.036;2023-04-28T06:26:37;22.00;43.20
35325;DHT22;35135;47.510;19.036;2023-04-28T06:29:02;22.00;43.10
35325;DHT22;35135;47.510;19.036;2023-04-28T06:31:28;22.00;43.10
35325;DHT22;35135;47.510;19.036;2023-04-28T06:33:54;22.00;43.30
35325;DHT22;35135;47.510;19.036;2023-04-28T06:36:20;22.00;43.60
35325;DHT22;35135;47.510;19.036;2023-04-28T06:38:45;22.00;43.90
35325;DHT22;35135;47.510;19.036;2023-04-28T06:41:11;22.00;43.70
35325;DHT22;35135;47.510;19.036;2023-04-28T06:43:37;21.90;43.60
35325;DHT22;35135;47.510;19.036;2023-04-28T06:46:03;21.90;43.50
35325;DHT22;35135;47.510;19.036;2023-04-28T06:48:28;21.90;43.50
35325;DHT22;35135;47.510;19.036;2023-04-28T06:50:54;21.90;43.50
35325;DHT22;35135;47.510;19.036;2023-04-28T06:53:20;21.90;43.40
35325;DHT22;35135;47.510;19.036;2023-04-28T06:55:46;21.90;43.60
35325;DHT22;35135;47.510;19.036;2023-04-28T06:58:11;21.90;43.50
35325;DHT22;35135;47.510;19.036;2023-04-28T07:00:37;21.90;43.70
35325;DHT22;35135;47.510;19.036;2023-04-28T07:03:03;21.90;43.30
35325;DHT22;35135;47.510;19.036;2023-04-28T07:05:29;21.90;43.10
35325;DHT22;35135;47.510;19.036;2023-04-28T07:07:55;21.90;43.10
35325;DHT22;35135;47.510;19.036;2023-04-28T07:10:20;21.90;43.10
35325;DHT22;35135;47.510;19.036;2023-04-28T07:12:46;21.90;43.20
35325;DHT22;35135;47.510;19.036;2023-04-28T07:15:12;21.90;43.20
35325;DHT22;35135;47.510;19.036;2023-04-28T07:17:37;21.90;43.30
35325;DHT22;35135;47.510;19.036;2023-04-28T07:20:04;21.90;43.30
35325;DHT22;35135;47.510;19.036;2023-04-28T07:22:31;21.90;43.50
35325;DHT22;35135;47.510;19.036;2023-04-28T07:24:56;22.00;43.40
35325;DHT22;35135;47.510;19.036;2023-04-28T07:27:22;22.00;43.40
35325;DHT22;35135;47.510;19.036;2023-04-28T07:29:48;22.00;43.30
35325;DHT22;35135;47.510;19.036;2023-04-28T07:32:14;22.00;43.40
35325;DHT22;35135;47.510;19.036;2023-04-28T07:34:39;22.00;43.40
35325;DHT22;35135;47.510;19.036;2023-04-28T07:37:05;22.00;43.70
35325;DHT22;35135;47.510;19.036;2023-04-28T07:39:31;22.00;43.80
35325;DHT22;35135;47.510;19.036;2023-04-28T07:41:58;22.00;43.80
35325;DHT22;35135;47.510;19.036;2023-04-28T07:44:24;22.00;43.90
35325;DHT22;35135;47.510;19.036;2023-04-28T07:46:50;22.00;43.80
35325;DHT22;35135;47.510;19.036;2023-04-28T07:49:16;22.00;44.30
35325;DHT22;35135;47.510;19.036;2023-04-28T07:51:42;22.00;44.20
35325;DHT22;35135;47.510;19.036;2023-04-28T07:54:07;22.00;44.80
35325;DHT22;35135;47.510;19.036;2023-04-28T07:56:33;22.00;44.30
35325;DHT22;35135;47.510;19.036;2023-04-28T07:58:59;22.00;44.30
35325;DHT22;35135;47.510;19.036;2023-04-28T08:01:24;22.00;44.50
35325;DHT22;35135;47.510;19.036;2023-04-28T08:03:50;22.10;44.40
35325;DHT22;35135;47.510;19.036;2023-04-28T08:06:16;22.10;44.50
35325;DHT22;35135;47.510;19.036;2023-04-28T08:08:42;22.10;44.50
35325;DHT22;35135;47.510;19.036;2023-04-28T08:11:08;22.10;44.30
35325;DHT22;35135;47.510;19.036;2023-04-28T08:13:33;22.10;44.30
35325;DHT22;35135;47.510;19.036;2023-04-28T08:15:59;22.20;44.30
35325;DHT22;35135;47.510;19.036;2023-04-28T08:18:26;22.10;44.30
35325;DHT22;35135;47.510;19.036;2023-04-28T08:20:52;22.20;44.50
35325;DHT22;35135;47.510;19.036;2023-04-28T08:23:17;22.20;44.30
35325;DHT22;35135;47.510;19.036;2023-04-28T08:25:44;22.20;44.20
35325;DHT22;35135;47.510;19.036;2023-04-28T08:28:11;22.20;44.20
35325;DHT22;35135;47.510;19.036;2023-04-28T08:30:37;22.20;44.20
35325;DHT22;35135;47.510;19.036;2023-04-28T08:33:03;22.20;44.20
35325;DHT22;35135;47.510;19.036;2023-04-28T08:35:29;22.20;44.20
35325;DHT22;35135;47.510;19.036;2023-04-28T08:37:55;22.20;44.30
35325;DHT22;35135;47.510;19.036;2023-04-28T08:40:21;22.20;44.20
35325;DHT22;35135;47.510;19.036;2023-04-28T08:42:49;22.20;44.40
35325;DHT22;35135;47.510;19.036;2023-04-28T08:45:15;22.20;44.70
35325;DHT22;35135;47.510;19.036;2023-04-28T08:47:41;22.20;45.40
35325;DHT22;35135;47.510;19.036;2023-04-28T08:50:11;22.20;45.40
35325;DHT22;35135;47.510;19.036;2023-04-28T08:52:38;22.20;45.40
35325;DHT22;35135;47.510;19.036;2023-04-28T08:55:09;22.20;45.40
35325;DHT22;35135;47.510;19.036;2023-04-28T09:00:07;22.20;45.70
35325;DHT22;35135;47.510;19.036;2023-04-28T09:02:32;22.20;45.80
35325;DHT22;35135;47.510;19.036;2023-04-28T09:04:58;22.20;46.10
35325;DHT22;35135;47.510;19.036;2023-04-28T09:07:24;22.20;46.30
35325;DHT22;35135;47.510;19.036;2023-04-28T09:09:49;22.20;46.90
35325;DHT22;35135;47.510;19.036;2023-04-28T09:12:17;22.20;46.80
35325;DHT22;35135;47.510;19.036;2023-04-28T09:14:43;22.20;46.90
35325;DHT22;35135;47.510;19.036;2023-04-28T09:17:10;22.20;46.80
35325;DHT22;35135;47.510;19.036;2023-04-28T09:19:40;22.20;46.70
35325;DHT22;35135;47.510;19.036;2023-04-28T09:22:11;22.20;46.70
35325;DHT22;35135;47.510;19.036;2023-04-28T09:24:39;22.20;46.80
35325;DHT22;35135;47.510;19.036;2023-04-28T09:27:06;22.20;46.70
35325;DHT22;35135;47.510;19.036;2023-04-28T09:29:46;22.20;46.70
35325;DHT22;35135;47.510;19.036;2023-04-28T09:32:17;22.20;46.70
35325;DHT22;35135;47.510;19.036;2023-04-28T09:34:48;22.20;46.70
35325;DHT22;35135;47.510;19.036;2023-04-28T09:37:16;22.20;46.70
35325;DHT22;35135;47.510;19.036;2023-04-28T09:39:45;22.20;46.70
35325;DHT22;35135;47.510;19.036;2023-04-28T09:42:31;22.30;46.60
35325;DHT22;35135;47.510;19.036;2023-04-28T09:45:02;22.20;46.70
35325;DHT22;35135;47.510;19.036;2023-04-28T09:47:29;22.30;47.00
35325;DHT22;35135;47.510;19.036;2023-04-28T09:49:58;22.30;46.90
35325;DHT22;35135;47.510;19.036;2023-04-28T09:52:25;22.30;47.20
35325;DHT22;35135;47.510;19.036;2023-04-28T09:54:52;22.30;47.20
35325;DHT22;35135;47.510;19.036;2023-04-28T09:57:19;22.30;47.10
35325;DHT22;35135;47.510;19.036;2023-04-28T09:59:49;22.30;47.10
35325;DHT22;35135;47.510;19.036;2023-04-28T10:02:17;22.30;47.30
35325;DHT22;35135;47.510;19.036;2023-04-28T10:04:49;22.30;47.10
35325;DHT22;35135;47.510;19.036;2023-04-28T10:07:21;22.30;47.30
35325;DHT22;35135;47.510;19.036;2023-04-28T10:09:48;22.30;47.10
35325;DHT22;35135;47.510;19.036;2023-04-28T10:12:21;22.30;47.30
35325;DHT22;35135;47.510;19.036;2023-04-28T10:14:48;22.30;47.50
35325;DHT22;35135;47.510;19.036;2023-04-28T10:17:21;22.30;47.60
35325;DHT22;35135;47.510;19.036;2023-04-28T10:19:51;22.30;47.80
35325;DHT22;35135;47.510;19.036;2023-04-28T10:27:39;22.30;47.90
35325;DHT22;35135;47.510;19.036;2023-04-28T10:30:13;22.30;48.20
35325;DHT22;35135;47.510;19.036;2023-04-28T10:32:39;22.30;47.90
35325;DHT22;35135;47.510;19.036;2023-04-28T10:40:33;22.40;48.20
35325;DHT22;35135;47.510;19.036;2023-04-28T10:42:59;22.40;48.10
35325;DHT22;35135;47.510;19.036;2023-04-28T10:48:15;22.30;48.00
35325;DHT22;35135;47.510;19.036;2023-04-28T10:56:17;22.40;47.90
35325;DHT22;35135;47.510;19.036;2023-04-28T10:58:54;22.40;47.90
35325;DHT22;35135;47.510;19.036;2023-04-28T11:01:23;22.40;47.80
35325;DHT22;35135;47.510;19.036;2023-04-28T11:03:56;22.40;47.80
35325;DHT22;35135;47.510;19.036;2023-04-28T11:09:01;22.50;47.60
35325;DHT22;35135;47.510;19.036;2023-04-28T11:11:31;22.40;47.40
35325;DHT22;35135;47.510;19.036;2023-04-28T11:14:29;22.50;47.30
35325;DHT22;35135;47.510;19.036;2023-04-28T11:19:28;22.50;46.90
35325;DHT22;35135;47.510;19.036;2023-04-28T11:21:56;22.40;46.80
35325;DHT22;35135;47.510;19.036;2023-04-28T11:24:23;22.50;46.50
35325;DHT22;35135;47.510;19.036;2023-04-28T11:26:55;22.50;46.40
35325;DHT22;35135;47.510;19.036;2023-04-28T11:29:37;22.50;46.30
35325;DHT22;35135;47.510;19.036;2023-04-28T11:32:04;22.40;46.20
35325;DHT22;35135;47.510;19.036;2023-04-28T11:34:30;22.50;46.30
35325;DHT22;35135;47.510;19.036;2023-04-28T11:36:57;22.40;46.30
35325;DHT22;35135;47.510;19.036;2023-04-28T11:41:53;22.50;46.30
35325;DHT22;35135;47.510;19.036;2023-04-28T11:44:21;22.50;46.20
35325;DHT22;35135;47.510;19.036;2023-04-28T11:46:52;22.40;46.10
35325;DHT22;35135;47.510;19.036;2023-04-28T11:49:25;22.40;46.10
35325;DHT22;35135;47.510;19.036;2023-04-28T11:52:03;22.40;46.10
35325;DHT22;35135;47.510;19.036;2023-04-28T11:54:30;22.50;46.30
35325;DHT22;35135;47.510;19.036;2023-04-28T11:56:57;22.50;46.50
35325;DHT22;35135;47.510;19.036;2023-04-28T11:59:28;22.50;46.60
35325;DHT22;35135;47.510;19.036;2023-04-28T12:01:57;22.50;46.50
35325;DHT22;35135;47.510;19.036;2023-04-28T12:04:27;22.50;46.50
35325;DHT22;35135;47.510;19.036;2023-04-28T12:07:03;22.50;46.40
35325;DHT22;35135;47.510;19.036;2023-04-28T12:09:30;22.50;46.30
35325;DHT22;35135;47.510;19.036;2023-04-28T12:12:00;22.50;46.30
35325;DHT22;35135;47.510;19.036;2023-04-28T12:14:27;22.40;46.60
35325;DHT22;35135;47.510;19.036;2023-04-28T12:16:53;22.50;46.10
35325;DHT22;35135;47.510;19.036;2023-04-28T12:19:19;22.50;46.10
35325;DHT22;35135;47.510;19.036;2023-04-28T12:22:06;22.50;46.10
35325;DHT22;35135;47.510;19.036;2023-04-28T12:24:32;22.40;46.00
35325;DHT22;35135;47.510;19.036;2023-04-28T12:29:41;22.50;46.10
35325;DHT22;35135;47.510;19.036;2023-04-28T12:32:09;22.40;46.00
35325;DHT22;35135;47.510;19.036;2023-04-28T12:34:35;22.50;45.90
35325;DHT22;35135;47.510;19.036;2023-04-28T12:37:02;22.40;45.90
35325;DHT22;35135;47.510;19.036;2023-04-28T12:39:37;22.50;45.90
35325;DHT22;35135;47.510;19.036;2023-04-28T12:42:03;22.50;45.90
35325;DHT22;35135;47.510;19.036;2023-04-28T12:44:33;22.50;45.90
35325;DHT22;35135;47.510;19.036;2023-04-28T12:47:06;22.50;45.90
35325;DHT22;35135;47.510;19.036;2023-04-28T12:49:35;22.50;45.90
35325;DHT22;35135;47.510;19.036;2023-04-28T12:52:02;22.60;45.90
35325;DHT22;35135;47.510;19.036;2023-04-28T12:54:28;22.60;45.80
35325;DHT22;35135;47.510;19.036;2023-04-28T12:56:54;22.50;45.90
35325;DHT22;35135;47.510;19.036;2023-04-28T12:59:20;22.50;46.40
35325;DHT22;35135;47.510;19.036;2023-04-28T13:01:47;22.50;45.80
35325;DHT22;35135;47.510;19.036;2023-04-28T13:04:12;22.60;45.80
35325;DHT22;35135;47.510;19.036;2023-04-28T13:06:38;22.60;45.70
35325;DHT22;35135;47.510;19.036;2023-04-28T13:09:10;22.60;45.60
35325;DHT22;35135;47.510;19.036;2023-04-28T13:11:36;22.60;45.60
35325;DHT22;35135;47.510;19.036;2023-04-28T13:14:02;22.60;45.50
35325;DHT22;35135;47.510;19.036;2023-04-28T13:16:28;22.60;45.60
35325;DHT22;35135;47.510;19.036;2023-04-28T13:18:55;22.60;45.40
35325;DHT22;35135;47.510;19.036;2023-04-28T13:21:23;22.60;45.60
35325;DHT22;35135;47.510;19.036;2023-04-28T13:23:49;22.60;45.60
35325;DHT22;35135;47.510;19.036;2023-04-28T13:26:15;22.60;45.60
35325;DHT22;35135;47.510;19.036;2023-04-28T13:28:41;22.60;45.60
35325;DHT22;35135;47.510;19.036;2023-04-28T13:31:07;22.60;45.70
35325;DHT22;35135;47.510;19.036;2023-04-28T13:33:33;22.60;45.70
35325;DHT22;35135;47.510;19.036;2023-04-28T13:35:59;22.60;45.70
35325;DHT22;35135;47.510;19.036;2023-04-28T13:38:25;22.60;45.70
35325;DHT22;35135;47.510;19.036;2023-04-28T13:40:51;22.60;45.80
35325;DHT22;35135;47.510;19.036;2023-04-28T13:43:17;22.60;45.80
35325;DHT22;35135;47.510;19.036;2023-04-28T13:45:43;22.60;45.80
35325;DHT22;35135;47.510;19.036;2023-04-28T13:48:09;22.60;45.80
35325;DHT22;35135;47.510;19.036;2023-04-28T13:50:36;22.60;45.80
35325;DHT22;35135;47.510;19.036;2023-04-28T13:53:02;22.60;45.60
35325;DHT22;35135;47.510;19.036;2023-04-28T13:55:28;22.60;45.80
35325;DHT22;35135;47.510;19.036;2023-04-28T13:57:54;22.60;45.90
35325;DHT22;35135;47.510;19.036;2023-04-28T14:00:20;22.60;45.90
35325;DHT22;35135;47.510;19.036;2023-04-28T14:02:46;22.60;46.00
35325;DHT22;35135;47.510;19.036;2023-04-28T14:05:15;22.60;45.90
35325;DHT22;35135;47.510;19.036;2023-04-28T14:07:42;22.60;45.80
35325;DHT22;35135;47.510;19.036;2023-04-28T14:10:08;22.60;45.80
35325;DHT22;35135;47.510;19.036;2023-04-28T14:12:35;22.60;45.70
35325;DHT22;35135;47.510;19.036;2023-04-28T14:15:01;22.60;45.80
35325;DHT22;35135;47.510;19.036;2023-04-28T14:17:27;22.60;45.70
35325;DHT22;35135;47.510;19.036;2023-04-28T14:19:53;22.60;45.70
35325;DHT22;35135;47.510;19.036;2023-04-28T14:22:18;22.60;45.70
35325;DHT22;35135;47.510;19.036;2023-04-28T14:24:44;22.60;45.60
35325;DHT22;35135;47.510;19.036;2023-04-28T14:27:10;22.60;45.70
35325;DHT22;35135;47.510;19.036;2023-04-28T14:29:36;22.60;45.50
35325;DHT22;35135;47.510;19.036;2023-04-28T14:32:01;22.60;45.40
35325;DHT22;35135;47.510;19.036;2023-04-28T14:34:27;22.60;45.20
35325;DHT22;35135;47.510;19.036;2023-04-28T14:36:53;22.60;45.20
35325;DHT22;35135;47.510;19.036;2023-04-28T14:39:19;22.60;45.20
35325;DHT22;35135;47.510;19.036;2023-04-28T14:41:44;22.60;45.30
35325;DHT22;35135;47.510;19.036;2023-04-28T14:44:10;22.60;45.70
35325;DHT22;35135;47.510;19.036;2023-04-28T14:46:36;22.60;45.90
35325;DHT22;35135;47.510;19.036;2023-04-28T14:49:02;22.60;45.90
35325;DHT22;35135;47.510;19.036;2023-04-28T14:51:28;22.60;46.10
35325;DHT22;35135;47.510;19.036;2023-04-28T14:53:53;22.60;46.30
35325;DHT22;35135;47.510;19.036;2023-04-28T14:56:19;22.60;46.30
35325;DHT22;35135;47.510;19.036;2023-04-28T14:58:46;22.60;46.40
35325;DHT22;35135;47.510;19.036;2023-04-28T15:01:13;22.60;46.60
35325;DHT22;35135;47.510;19.036;2023-04-28T15:03:38;22.60;46.70
35325;DHT22;35135;47.510;19.036;2023-04-28T15:06:04;22.60;46.70
35325;DHT22;35135;47.510;19.036;2023-04-28T15:08:31;22.60;46.70
35325;DHT22;35135;47.510;19.036;2023-04-28T15:10:57;22.60;46.70
35325;DHT22;35135;47.510;19.036;2023-04-28T15:13:23;22.60;46.90
35325;DHT22;35135;47.510;19.036;2023-04-28T15:15:52;22.60;47.70
35325;DHT22;35135;47.510;19.036;2023-04-28T15:18:18;22.60;47.10
35325;DHT22;35135;47.510;19.036;2023-04-28T15:20:45;22.60;47.40
35325;DHT22;35135;47.510;19.036;2023-04-28T15:23:12;22.60;47.20
35325;DHT22;35135;47.510;19.036;2023-04-28T15:25:38;22.60;47.20
35325;DHT22;35135;47.510;19.036;2023-04-28T15:28:03;22.60;47.30
35325;DHT22;35135;47.510;19.036;2023-04-28T15:30:32;22.60;47.30
35325;DHT22;35135;47.510;19.036;2023-04-28T15:32:58;22.60;47.30
35325;DHT22;35135;47.510;19.036;2023-04-28T15:35:24;22.60;47.30
35325;DHT22;35135;47.510;19.036;2023-04-28T15:37:51;22.60;47.30
35325;DHT22;35135;47.510;19.036;2023-04-28T15:40:18;22.60;47.30
35325;DHT22;35135;47.510;19.036;2023-04-28T15:42:45;22.60;47.30
35325;DHT22;35135;47.510;19.036;2023-04-28T15:45:14;22.60;47.10